sensor_id;sensor_type;location;lat;lon;timestamp;pressure;altitude;pressure_sealevel;temperature;humidity
62849;BME280;48941;49.516;8.286;2023-06-04T00:00:21;100511.03;;;15.87;48.07
62849;BME280;48941;49.516;8.286;2023-06-04T00:02:49;100515.72;;;15.85;48.09
62849;BME280;48941;49.516;8.286;2023-06-04T00:05:17;100516.88;;;15.82;48.08
62849;BME280;48941;49.516;8.286;2023-06-04T00:07:46;100514.69;;;15.78;48.63
62849;BME280;48941;49.516;8.286;2023-06-04T00:10:14;100508.19;;;15.70;48.67
62849;BME280;48941;49.516;8.286;2023-06-04T00:12:42;100506.25;;;15.63;48.65
62849;BME280;48941;49.516;8.286;2023-06-04T00:15:10;100513.09;;;15.57;49.24
62849;BME280;48941;49.516;8.286;2023-06-04T00:17:38;100505.34;;;15.54;49.16
62849;BME280;48941;49.516;8.286;2023-06-04T00:20:07;100515.53;;;15.50;49.10
62849;BME280;48941;49.516;8.286;2023-06-04T00:22:35;100505.09;;;15.47;49.28
62849;BME280;48941;49.516;8.286;2023-06-04T00:25:04;100508.94;;;15.45;49.57
62849;BME280;48941;49.516;8.286;2023-06-04T00:27:32;100508.56;;;15.40;49.50
62849;BME280;48941;49.516;8.286;2023-06-04T00:30:00;100505.34;;;15.36;49.57
62849;BME280;48941;49.516;8.286;2023-06-04T00:32:28;100503.78;;;15.33;49.48
62849;BME280;48941;49.516;8.286;2023-06-04T00:34:56;100504.94;;;15.31;49.45
62849;BME280;48941;49.516;8.286;2023-06-04T00:37:25;100506.38;;;15.25;49.56
62849;BME280;48941;49.516;8.286;2023-06-04T00:39:53;100504.97;;;15.21;49.38
62849;BME280;48941;49.516;8.286;2023-06-04T00:42:22;100496.69;;;15.14;49.69
62849;BME280;48941;49.516;8.286;2023-06-04T00:44:50;100505.03;;;15.11;49.89
62849;BME280;48941;49.516;8.286;2023-06-04T00:47:19;100508.03;;;15.08;50.09
62849;BME280;48941;49.516;8.286;2023-06-04T00:49:48;100511.00;;;15.05;50.02
62849;BME280;48941;49.516;8.286;2023-06-04T00:52:16;100513.16;;;15.02;50.52
62849;BME280;48941;49.516;8.286;2023-06-04T00:54:44;100518.56;;;14.92;50.97
62849;BME280;48941;49.516;8.286;2023-06-04T00:57:12;100525.91;;;14.90;50.90
62849;BME280;48941;49.516;8.286;2023-06-04T00:59:41;100520.13;;;14.85;50.79
62849;BME280;48941;49.516;8.286;2023-06-04T01:02:11;100518.47;;;14.84;50.76
62849;BME280;48941;49.516;8.286;2023-06-04T01:04:44;100518.75;;;14.81;50.26
62849;BME280;48941;49.516;8.286;2023-06-04T01:07:14;100522.25;;;14.81;50.22
62849;BME280;48941;49.516;8.286;2023-06-04T01:09:44;100521.56;;;14.79;50.62
62849;BME280;48941;49.516;8.286;2023-06-04T01:12:12;100525.41;;;14.77;50.59
62849;BME280;48941;49.516;8.286;2023-06-04T01:14:41;100524.69;;;14.74;50.39
62849;BME280;48941;49.516;8.286;2023-06-04T01:17:16;100521.47;;;14.71;50.64
62849;BME280;48941;49.516;8.286;2023-06-04T01:22:56;100521.19;;;14.54;51.43
62849;BME280;48941;49.516;8.286;2023-06-04T01:25:32;100526.84;;;14.51;51.81
62849;BME280;48941;49.516;8.286;2023-06-04T01:28:01;100531.09;;;14.44;51.55
62849;BME280;48941;49.516;8.286;2023-06-04T01:30:34;100529.16;;;14.37;52.14
62849;BME280;48941;49.516;8.286;2023-06-04T01:33:03;100531.97;;;14.35;52.19
62849;BME280;48941;49.516;8.286;2023-06-04T01:35:31;100528.13;;;14.38;51.65
62849;BME280;48941;49.516;8.286;2023-06-04T01:37:59;100528.00;;;14.39;51.62
62849;BME280;48941;49.516;8.286;2023-06-04T01:40:26;100526.31;;;14.38;51.32
62849;BME280;48941;49.516;8.286;2023-06-04T01:42:54;100518.44;;;14.37;51.10
62849;BME280;48941;49.516;8.286;2023-06-04T01:45:23;100530.28;;;14.34;51.38
62849;BME280;48941;49.516;8.286;2023-06-04T01:47:53;100532.41;;;14.30;51.68
62849;BME280;48941;49.516;8.286;2023-06-04T01:50:21;100529.03;;;14.28;51.38
62849;BME280;48941;49.516;8.286;2023-06-04T01:52:49;100529.44;;;14.24;51.39
62849;BME280;48941;49.516;8.286;2023-06-04T01:55:17;100525.06;;;14.23;51.50
62849;BME280;48941;49.516;8.286;2023-06-04T01:57:46;100530.31;;;14.24;51.61
62849;BME280;48941;49.516;8.286;2023-06-04T02:00:14;100529.59;;;14.22;51.06
62849;BME280;48941;49.516;8.286;2023-06-04T02:02:43;100521.69;;;14.21;50.79
62849;BME280;48941;49.516;8.286;2023-06-04T02:05:14;100530.31;;;14.24;50.44
62849;BME280;48941;49.516;8.286;2023-06-04T02:07:44;100519.03;;;14.21;50.58
62849;BME280;48941;49.516;8.286;2023-06-04T02:10:16;100528.19;;;14.18;50.25
62849;BME280;48941;49.516;8.286;2023-06-04T02:12:53;100521.69;;;14.21;49.67
62849;BME280;48941;49.516;8.286;2023-06-04T02:15:22;100530.72;;;14.20;49.43
62849;BME280;48941;49.516;8.286;2023-06-04T02:17:50;100529.03;;;14.19;48.74
62849;BME280;48941;49.516;8.286;2023-06-04T02:20:22;100523.81;;;14.17;48.98
62849;BME280;48941;49.516;8.286;2023-06-04T02:22:49;100522.97;;;14.17;48.79
62849;BME280;48941;49.516;8.286;2023-06-04T02:25:17;100530.16;;;14.16;48.92
62849;BME280;48941;49.516;8.286;2023-06-04T02:27:45;100530.88;;;14.18;48.26
62849;BME280;48941;49.516;8.286;2023-06-04T02:30:13;100533.56;;;14.18;48.70
62849;BME280;48941;49.516;8.286;2023-06-04T02:32:42;100533.56;;;14.18;48.44
62849;BME280;48941;49.516;8.286;2023-06-04T02:35:17;100527.50;;;14.16;48.62
62849;BME280;48941;49.516;8.286;2023-06-04T02:37:48;100530.88;;;14.18;48.78
62849;BME280;48941;49.516;8.286;2023-06-04T02:40:16;100527.19;;;14.19;48.71
62849;BME280;48941;49.516;8.286;2023-06-04T02:42:44;100532.84;;;14.16;48.56
62849;BME280;48941;49.516;8.286;2023-06-04T02:45:12;100536.38;;;14.17;49.06
62849;BME280;48941;49.516;8.286;2023-06-04T02:47:39;100535.66;;;14.14;48.81
62849;BME280;48941;49.516;8.286;2023-06-04T02:50:08;100533.25;;;14.11;49.15
62849;BME280;48941;49.516;8.286;2023-06-04T02:52:36;100531.16;;;14.05;48.99
62849;BME280;48941;49.516;8.286;2023-06-04T02:55:07;100533.81;;;14.05;48.98
62849;BME280;48941;49.516;8.286;2023-06-04T02:57:35;100536.50;;;14.05;48.98
62849;BME280;48941;49.516;8.286;2023-06-04T03:00:04;100537.50;;;14.04;48.92
62849;BME280;48941;49.516;8.286;2023-06-04T03:02:41;100537.78;;;14.01;48.86
62849;BME280;48941;49.516;8.286;2023-06-04T03:05:11;100540.75;;;13.98;49.20
62849;BME280;48941;49.516;8.286;2023-06-04T03:07:43;100548.78;;;13.98;48.88
62849;BME280;48941;49.516;8.286;2023-06-04T03:10:14;100540.88;;;13.97;48.95
62849;BME280;48941;49.516;8.286;2023-06-04T03:12:42;100546.38;;;13.95;49.08
62849;BME280;48941;49.516;8.286;2023-06-04T03:15:11;100543.00;;;13.93;49.56
62849;BME280;48941;49.516;8.286;2023-06-04T03:17:39;100544.41;;;13.87;50.11
62849;BME280;48941;49.516;8.286;2023-06-04T03:20:08;100553.44;;;13.86;49.97
62849;BME280;48941;49.516;8.286;2023-06-04T03:22:36;100543.00;;;13.83;49.97
62849;BME280;48941;49.516;8.286;2023-06-04T03:25:05;100544.84;;;13.83;49.70
62849;BME280;48941;49.516;8.286;2023-06-04T03:27:34;100543.13;;;13.82;49.62
62849;BME280;48941;49.516;8.286;2023-06-04T03:30:03;100548.34;;;13.83;50.00
62849;BME280;48941;49.516;8.286;2023-06-04T03:32:31;100547.78;;;13.80;49.83
62849;BME280;48941;49.516;8.286;2023-06-04T03:34:59;100547.66;;;13.81;49.56
62849;BME280;48941;49.516;8.286;2023-06-04T03:37:27;100543.28;;;13.80;49.23
62849;BME280;48941;49.516;8.286;2023-06-04T03:39:55;100545.41;;;13.77;49.87
62849;BME280;48941;49.516;8.286;2023-06-04T03:42:23;100548.19;;;13.75;49.79
62849;BME280;48941;49.516;8.286;2023-06-04T03:44:52;100539.19;;;13.76;49.91
62849;BME280;48941;49.516;8.286;2023-06-04T03:47:20;100549.03;;;13.75;49.68
62849;BME280;48941;49.516;8.286;2023-06-04T03:49:47;100541.31;;;13.72;49.64
62849;BME280;48941;49.516;8.286;2023-06-04T03:52:15;100542.72;;;13.77;49.62
62849;BME280;48941;49.516;8.286;2023-06-04T03:54:43;100538.34;;;13.75;50.10
62849;BME280;48941;49.516;8.286;2023-06-04T03:57:11;100537.50;;;13.75;49.76
62849;BME280;48941;49.516;8.286;2023-06-04T03:59:38;100548.06;;;13.77;49.58
62849;BME280;48941;49.516;8.286;2023-06-04T04:02:08;100557.06;;;13.75;50.25
62849;BME280;48941;49.516;8.286;2023-06-04T04:04:35;100549.47;;;13.81;50.15
62849;BME280;48941;49.516;8.286;2023-06-04T04:07:03;100549.34;;;13.82;50.14
62849;BME280;48941;49.516;8.286;2023-06-04T04:09:31;100554.53;;;13.84;49.91
62849;BME280;48941;49.516;8.286;2023-06-04T04:11:59;100551.59;;;13.87;50.42
62849;BME280;48941;49.516;8.286;2023-06-04T04:14:27;100545.81;;;13.91;50.11
62849;BME280;48941;49.516;8.286;2023-06-04T04:16:54;100553.84;;;13.91;49.85
62849;BME280;48941;49.516;8.286;2023-06-04T04:19:24;100557.09;;;13.95;50.37
62849;BME280;48941;49.516;8.286;2023-06-04T04:21:55;100563.00;;;13.99;49.75
62849;BME280;48941;49.516;8.286;2023-06-04T04:24:23;100560.91;;;14.02;50.05
62849;BME280;48941;49.516;8.286;2023-06-04T04:26:50;100557.22;;;14.03;49.99
62849;BME280;48941;49.516;8.286;2023-06-04T04:29:20;100566.41;;;14.10;49.66
62849;BME280;48941;49.516;8.286;2023-06-04T04:31:49;100561.75;;;14.12;49.44
62849;BME280;48941;49.516;8.286;2023-06-04T04:34:16;100565.13;;;14.14;49.49
62849;BME280;48941;49.516;8.286;2023-06-04T04:36:48;100569.66;;;14.14;49.55
62849;BME280;48941;49.516;8.286;2023-06-04T04:39:18;100563.00;;;14.18;49.77
62849;BME280;48941;49.516;8.286;2023-06-04T04:41:47;100567.25;;;14.21;49.72
62849;BME280;48941;49.516;8.286;2023-06-04T04:44:14;100574.13;;;14.23;49.59
62849;BME280;48941;49.516;8.286;2023-06-04T04:46:42;100571.06;;;14.28;49.95
62849;BME280;48941;49.516;8.286;2023-06-04T04:49:10;100570.75;;;14.31;49.49
62849;BME280;48941;49.516;8.286;2023-06-04T04:51:38;100571.31;;;14.34;49.93
62849;BME280;48941;49.516;8.286;2023-06-04T04:54:07;100577.25;;;14.38;49.61
62849;BME280;48941;49.516;8.286;2023-06-04T04:56:35;100577.63;;;14.43;49.46
62849;BME280;48941;49.516;8.286;2023-06-04T04:59:03;100577.63;;;14.43;49.27
62849;BME280;48941;49.516;8.286;2023-06-04T05:01:30;100585.41;;;14.46;49.96
62849;BME280;48941;49.516;8.286;2023-06-04T05:03:58;100581.31;;;14.52;49.38
62849;BME280;48941;49.516;8.286;2023-06-04T05:06:28;100582.44;;;14.59;49.95
62849;BME280;48941;49.516;8.286;2023-06-04T05:08:56;100581.72;;;14.67;49.44
62849;BME280;48941;49.516;8.286;2023-06-04T05:11:25;100587.63;;;14.70;49.44
62849;BME280;48941;49.516;8.286;2023-06-04T05:13:53;100587.06;;;14.77;49.03
62849;BME280;48941;49.516;8.286;2023-06-04T05:16:21;100582.25;;;14.80;49.11
62849;BME280;48941;49.516;8.286;2023-06-04T05:18:49;100594.78;;;14.89;49.12
62849;BME280;48941;49.516;8.286;2023-06-04T05:21:18;100593.91;;;14.99;48.87
62849;BME280;48941;49.516;8.286;2023-06-04T05:23:46;100593.31;;;15.05;48.82
62849;BME280;48941;49.516;8.286;2023-06-04T05:26:15;100588.38;;;15.10;48.29
62849;BME280;48941;49.516;8.286;2023-06-04T05:28:44;100594.81;;;15.17;48.48
62849;BME280;48941;49.516;8.286;2023-06-04T05:31:12;100588.34;;;15.20;48.26
62849;BME280;48941;49.516;8.286;2023-06-04T05:33:42;100590.69;;;15.23;48.20
62849;BME280;48941;49.516;8.286;2023-06-04T05:36:10;100591.50;;;15.33;48.32
62849;BME280;48941;49.516;8.286;2023-06-04T05:38:38;100595.13;;;15.42;48.08
62849;BME280;48941;49.516;8.286;2023-06-04T05:41:06;100598.53;;;15.44;47.65
62849;BME280;48941;49.516;8.286;2023-06-04T05:43:34;100599.44;;;15.52;47.50
62849;BME280;48941;49.516;8.286;2023-06-04T05:46:03;100611.13;;;15.61;47.85
62849;BME280;48941;49.516;8.286;2023-06-04T05:48:32;100604.84;;;15.70;47.40
62849;BME280;48941;49.516;8.286;2023-06-04T05:51:00;100599.31;;;15.82;47.49
62849;BME280;48941;49.516;8.286;2023-06-04T05:53:28;100604.44;;;15.93;46.89
62849;BME280;48941;49.516;8.286;2023-06-04T05:55:56;100612.75;;;16.00;47.02
62849;BME280;48941;49.516;8.286;2023-06-04T05:58:23;100616.19;;;16.10;46.50
62849;BME280;48941;49.516;8.286;2023-06-04T06:00:51;100612.91;;;16.16;46.90
62849;BME280;48941;49.516;8.286;2023-06-04T06:03:21;100616.03;;;16.29;46.20
62849;BME280;48941;49.516;8.286;2023-06-04T06:05:49;100618.63;;;16.39;45.53
62849;BME280;48941;49.516;8.286;2023-06-04T06:08:17;100619.38;;;16.49;45.09
62849;BME280;48941;49.516;8.286;2023-06-04T06:10:45;100621.97;;;16.59;45.66
62849;BME280;48941;49.516;8.286;2023-06-04T06:13:13;100621.06;;;16.68;44.90
62849;BME280;48941;49.516;8.286;2023-06-04T06:15:41;100622.63;;;16.79;44.60
62849;BME280;48941;49.516;8.286;2023-06-04T06:18:10;100625.41;;;16.87;44.47
62849;BME280;48941;49.516;8.286;2023-06-04T06:20:39;100631.69;;;16.96;44.44
62849;BME280;48941;49.516;8.286;2023-06-04T06:23:07;100620.16;;;17.04;44.29
62849;BME280;48941;49.516;8.286;2023-06-04T06:25:35;100638.69;;;17.15;43.93
62849;BME280;48941;49.516;8.286;2023-06-04T06:28:03;100635.34;;;17.21;43.84
62849;BME280;48941;49.516;8.286;2023-06-04T06:30:31;100631.03;;;17.28;43.46
62849;BME280;48941;49.516;8.286;2023-06-04T06:32:58;100634.59;;;17.37;43.71
62849;BME280;48941;49.516;8.286;2023-06-04T06:35:27;100639.03;;;17.46;43.11
62849;BME280;48941;49.516;8.286;2023-06-04T06:37:56;100636.88;;;17.58;43.01
62849;BME280;48941;49.516;8.286;2023-06-04T06:40:23;100638.91;;;17.64;42.87
62849;BME280;48941;49.516;8.286;2023-06-04T06:42:51;100633.41;;;17.74;42.53
62849;BME280;48941;49.516;8.286;2023-06-04T06:45:19;100642.34;;;17.83;42.11
62849;BME280;48941;49.516;8.286;2023-06-04T06:47:47;100646.63;;;17.94;41.93
62849;BME280;48941;49.516;8.286;2023-06-04T06:50:15;100641.41;;;18.00;41.29
62849;BME280;48941;49.516;8.286;2023-06-04T06:52:43;100648.84;;;18.06;41.93
62849;BME280;48941;49.516;8.286;2023-06-04T06:55:12;100642.47;;;18.16;41.82
62849;BME280;48941;49.516;8.286;2023-06-04T06:57:40;100650.19;;;18.27;41.47
62849;BME280;48941;49.516;8.286;2023-06-04T07:00:09;100649.88;;;18.30;41.36
62849;BME280;48941;49.516;8.286;2023-06-04T07:02:37;100648.53;;;18.42;40.76
62849;BME280;48941;49.516;8.286;2023-06-04T07:05:06;100648.69;;;18.49;40.90
62849;BME280;48941;49.516;8.286;2023-06-04T07:07:34;100646.19;;;18.64;40.97
62849;BME280;48941;49.516;8.286;2023-06-04T07:10:02;100648.19;;;18.70;40.43
62849;BME280;48941;49.516;8.286;2023-06-04T07:12:31;100653.06;;;18.75;40.30
62849;BME280;48941;49.516;8.286;2023-06-04T07:14:59;100656.44;;;18.77;40.58
62849;BME280;48941;49.516;8.286;2023-06-04T07:17:27;100653.06;;;18.75;40.60
62849;BME280;48941;49.516;8.286;2023-06-04T07:19:55;100652.56;;;18.71;40.92
62849;BME280;48941;49.516;8.286;2023-06-04T07:22:23;100651.72;;;18.70;40.55
62849;BME280;48941;49.516;8.286;2023-06-04T07:24:51;100656.28;;;18.78;40.82
62849;BME280;48941;49.516;8.286;2023-06-04T07:27:19;100662.06;;;18.83;40.47
62849;BME280;48941;49.516;8.286;2023-06-04T07:29:50;100653.97;;;18.83;40.14
62849;BME280;48941;49.516;8.286;2023-06-04T07:32:17;100651.44;;;18.82;40.69
62849;BME280;48941;49.516;8.286;2023-06-04T07:34:45;100648.22;;;18.86;40.29
62849;BME280;48941;49.516;8.286;2023-06-04T07:37:13;100647.88;;;18.89;40.28
62849;BME280;48941;49.516;8.286;2023-06-04T07:39:41;100650.38;;;18.91;40.40
62849;BME280;48941;49.516;8.286;2023-06-04T07:42:13;100652.06;;;19.00;39.76
62849;BME280;48941;49.516;8.286;2023-06-04T07:44:41;100660.97;;;19.09;39.79
62849;BME280;48941;49.516;8.286;2023-06-04T07:47:10;100656.94;;;19.21;38.62
62849;BME280;48941;49.516;8.286;2023-06-04T07:49:38;100660.97;;;19.25;37.75
62849;BME280;48941;49.516;8.286;2023-06-04T07:52:25;100652.50;;;19.28;37.42
62849;BME280;48941;49.516;8.286;2023-06-04T07:54:53;100650.28;;;19.40;38.06
62849;BME280;48941;49.516;8.286;2023-06-04T07:57:22;100650.56;;;19.54;38.13
62849;BME280;48941;49.516;8.286;2023-06-04T07:59:50;100650.81;;;19.67;36.95
62849;BME280;48941;49.516;8.286;2023-06-04T08:02:19;100653.53;;;19.75;36.48
62849;BME280;48941;49.516;8.286;2023-06-04T08:04:47;100652.13;;;19.87;36.50
62849;BME280;48941;49.516;8.286;2023-06-04T08:07:15;100651.59;;;19.92;35.72
62849;BME280;48941;49.516;8.286;2023-06-04T08:09:43;100654.22;;;20.00;35.75
62849;BME280;48941;49.516;8.286;2023-06-04T08:12:12;100649.44;;;20.10;35.66
62849;BME280;48941;49.516;8.286;2023-06-04T08:14:39;100641.47;;;20.17;35.43
62849;BME280;48941;49.516;8.286;2023-06-04T08:17:07;100653.16;;;20.33;35.41
62849;BME280;48941;49.516;8.286;2023-06-04T08:19:36;100645.84;;;20.41;34.97
62849;BME280;48941;49.516;8.286;2023-06-04T08:22:04;100654.84;;;20.57;34.86
62849;BME280;48941;49.516;8.286;2023-06-04T08:24:32;100648.03;;;20.69;35.33
62849;BME280;48941;49.516;8.286;2023-06-04T08:27:00;100642.81;;;20.82;35.04
62849;BME280;48941;49.516;8.286;2023-06-04T08:29:28;100639.94;;;20.99;34.84
62849;BME280;48941;49.516;8.286;2023-06-04T08:31:56;100639.22;;;21.20;34.81
62849;BME280;48941;49.516;8.286;2023-06-04T08:34:24;100638.53;;;21.33;34.63
62849;BME280;48941;49.516;8.286;2023-06-04T08:36:53;100650.53;;;21.53;33.77
62849;BME280;48941;49.516;8.286;2023-06-04T08:39:21;100652.03;;;21.56;33.61
62849;BME280;48941;49.516;8.286;2023-06-04T08:41:52;100650.97;;;21.72;33.30
62849;BME280;48941;49.516;8.286;2023-06-04T08:44:22;100653.91;;;21.92;33.08
62849;BME280;48941;49.516;8.286;2023-06-04T08:46:51;100653.56;;;22.16;32.83
62849;BME280;48941;49.516;8.286;2023-06-04T08:49:21;100654.69;;;22.43;32.35
62849;BME280;48941;49.516;8.286;2023-06-04T08:51:49;100652.94;;;22.57;31.95
62849;BME280;48941;49.516;8.286;2023-06-04T08:54:18;100655.13;;;22.68;32.01
62849;BME280;48941;49.516;8.286;2023-06-04T08:56:47;100652.72;;;22.80;31.38
62849;BME280;48941;49.516;8.286;2023-06-04T08:59:19;100662.88;;;23.00;31.91
62849;BME280;48941;49.516;8.286;2023-06-04T09:01:46;100667.25;;;23.22;31.40
62849;BME280;48941;49.516;8.286;2023-06-04T09:04:15;100667.34;;;23.42;31.39
62849;BME280;48941;49.516;8.286;2023-06-04T09:06:44;100662.00;;;23.62;30.50
62849;BME280;48941;49.516;8.286;2023-06-04T09:09:14;100659.63;;;23.81;30.20
62849;BME280;48941;49.516;8.286;2023-06-04T09:11:51;100660.88;;;23.78;30.26
62849;BME280;48941;49.516;8.286;2023-06-04T09:14:19;100659.00;;;23.85;30.53
62849;BME280;48941;49.516;8.286;2023-06-04T09:16:49;100667.63;;;23.96;30.35
62849;BME280;48941;49.516;8.286;2023-06-04T09:19:18;100667.88;;;24.14;30.29
62849;BME280;48941;49.516;8.286;2023-06-04T09:21:48;100665.63;;;24.31;30.19
62849;BME280;48941;49.516;8.286;2023-06-04T09:24:16;100665.00;;;24.36;29.76
62849;BME280;48941;49.516;8.286;2023-06-04T09:26:44;100664.16;;;24.42;29.87
62849;BME280;48941;49.516;8.286;2023-06-04T09:29:15;100660.84;;;24.47;29.35
62849;BME280;48941;49.516;8.286;2023-06-04T09:31:44;100664.63;;;24.65;29.61
62849;BME280;48941;49.516;8.286;2023-06-04T09:34:13;100664.84;;;24.77;28.42
62849;BME280;48941;49.516;8.286;2023-06-04T09:36:42;100661.91;;;24.85;28.52
62849;BME280;48941;49.516;8.286;2023-06-04T09:39:16;100661.09;;;24.98;28.27
62849;BME280;48941;49.516;8.286;2023-06-04T09:41:44;100651.81;;;25.06;28.62
62849;BME280;48941;49.516;8.286;2023-06-04T09:44:25;100651.63;;;25.08;27.97
62849;BME280;48941;49.516;8.286;2023-06-04T09:46:54;100654.34;;;24.94;28.62
62849;BME280;48941;49.516;8.286;2023-06-04T09:49:22;100657.75;;;24.76;27.95
62849;BME280;48941;49.516;8.286;2023-06-04T09:51:51;100650.00;;;24.67;28.58
62849;BME280;48941;49.516;8.286;2023-06-04T09:54:19;100657.31;;;24.73;28.46
62849;BME280;48941;49.516;8.286;2023-06-04T09:56:47;100650.59;;;24.89;28.50
62849;BME280;48941;49.516;8.286;2023-06-04T09:59:14;100652.88;;;25.12;28.51
62849;BME280;48941;49.516;8.286;2023-06-04T10:01:44;100647.00;;;25.35;27.68
62849;BME280;48941;49.516;8.286;2023-06-04T10:04:13;100659.91;;;25.59;27.60
62849;BME280;48941;49.516;8.286;2023-06-04T10:06:42;100648.72;;;25.74;27.66
62849;BME280;48941;49.516;8.286;2023-06-04T10:09:12;100644.44;;;25.98;27.32
62849;BME280;48941;49.516;8.286;2023-06-04T10:11:45;100644.31;;;26.18;27.18
62849;BME280;48941;49.516;8.286;2023-06-04T10:14:19;100645.91;;;26.33;27.24
62849;BME280;48941;49.516;8.286;2023-06-04T10:16:49;100644.56;;;26.42;25.90
62849;BME280;48941;49.516;8.286;2023-06-04T10:19:18;100635.09;;;26.45;26.50
62849;BME280;48941;49.516;8.286;2023-06-04T10:21:47;100637.94;;;26.63;25.50
62849;BME280;48941;49.516;8.286;2023-06-04T10:24:15;100644.50;;;26.80;25.59
62849;BME280;48941;49.516;8.286;2023-06-04T10:26:44;100638.00;;;27.00;25.65
62849;BME280;48941;49.516;8.286;2023-06-04T10:29:12;100638.78;;;27.07;25.63
62849;BME280;48941;49.516;8.286;2023-06-04T10:31:42;100638.41;;;27.22;25.33
62849;BME280;48941;49.516;8.286;2023-06-04T10:34:13;100630.63;;;27.44;25.26
62849;BME280;48941;49.516;8.286;2023-06-04T10:36:45;100634.03;;;27.58;25.06
62849;BME280;48941;49.516;8.286;2023-06-04T10:39:13;100635.53;;;27.72;24.11
62849;BME280;48941;49.516;8.286;2023-06-04T10:41:41;100611.63;;;27.79;24.63
62849;BME280;48941;49.516;8.286;2023-06-04T10:44:09;100629.69;;;27.69;25.22
62849;BME280;48941;49.516;8.286;2023-06-04T10:46:40;100629.97;;;27.79;24.47
62849;BME280;48941;49.516;8.286;2023-06-04T10:49:10;100617.66;;;27.88;24.38
62849;BME280;48941;49.516;8.286;2023-06-04T10:51:40;100622.72;;;27.85;23.64
62849;BME280;48941;49.516;8.286;2023-06-04T10:54:10;100619.53;;;28.06;23.26
62849;BME280;48941;49.516;8.286;2023-06-04T10:56:38;100619.31;;;28.19;23.54
62849;BME280;48941;49.516;8.286;2023-06-04T10:59:13;100617.09;;;28.40;23.42
62849;BME280;48941;49.516;8.286;2023-06-04T11:01:42;100609.41;;;28.60;22.82
62849;BME280;48941;49.516;8.286;2023-06-04T11:04:18;100614.06;;;28.72;22.47
62849;BME280;48941;49.516;8.286;2023-06-04T11:07:00;100603.72;;;28.74;21.71
62849;BME280;48941;49.516;8.286;2023-06-04T11:09:30;100609.16;;;28.86;22.35
62849;BME280;48941;49.516;8.286;2023-06-04T11:12:00;100607.50;;;28.85;21.18
62849;BME280;48941;49.516;8.286;2023-06-04T11:14:28;100605.81;;;28.84;22.29
62849;BME280;48941;49.516;8.286;2023-06-04T11:16:56;100610.25;;;28.85;22.37
62849;BME280;48941;49.516;8.286;2023-06-04T11:19:35;100607.72;;;28.71;21.63
62849;BME280;48941;49.516;8.286;2023-06-04T11:22:05;100609.41;;;28.72;22.03
62849;BME280;48941;49.516;8.286;2023-06-04T11:24:33;100614.41;;;28.52;22.25
62849;BME280;48941;49.516;8.286;2023-06-04T11:27:01;100607.69;;;28.48;21.40
62849;BME280;48941;49.516;8.286;2023-06-04T11:29:43;100601.88;;;28.44;22.13
62849;BME280;48941;49.516;8.286;2023-06-04T11:32:21;100609.47;;;28.42;21.67
62849;BME280;48941;49.516;8.286;2023-06-04T11:34:49;100604.09;;;28.35;22.60
62849;BME280;48941;49.516;8.286;2023-06-04T11:37:18;100596.47;;;28.37;22.73
62849;BME280;48941;49.516;8.286;2023-06-04T11:39:46;100601.09;;;28.25;22.56
62849;BME280;48941;49.516;8.286;2023-06-04T11:42:14;100593.50;;;28.27;21.84
62849;BME280;48941;49.516;8.286;2023-06-04T11:44:42;100592.09;;;28.36;22.81
62849;BME280;48941;49.516;8.286;2023-06-04T11:47:15;100602.91;;;28.31;22.13
62849;BME280;48941;49.516;8.286;2023-06-04T11:49:43;100598.41;;;28.49;22.47
62849;BME280;48941;49.516;8.286;2023-06-04T11:52:11;100601.88;;;28.44;22.07
62849;BME280;48941;49.516;8.286;2023-06-04T11:54:41;100595.00;;;28.65;22.17
62849;BME280;48941;49.516;8.286;2023-06-04T11:57:09;100595.44;;;28.86;21.99
62849;BME280;48941;49.516;8.286;2023-06-04T11:59:37;100598.78;;;28.99;22.25
62849;BME280;48941;49.516;8.286;2023-06-04T12:02:07;100595.00;;;29.12;22.25
62849;BME280;48941;49.516;8.286;2023-06-04T12:04:35;100602.84;;;29.21;21.84
62849;BME280;48941;49.516;8.286;2023-06-04T12:07:03;100601.78;;;29.10;21.10
62849;BME280;48941;49.516;8.286;2023-06-04T12:09:33;100604.25;;;28.99;20.77
62849;BME280;48941;49.516;8.286;2023-06-04T12:12:05;100584.75;;;28.96;21.54
62849;BME280;48941;49.516;8.286;2023-06-04T12:14:39;100584.25;;;28.99;21.74
62849;BME280;48941;49.516;8.286;2023-06-04T12:17:08;100596.91;;;29.00;21.77
62849;BME280;48941;49.516;8.286;2023-06-04T12:19:46;100586.84;;;29.06;20.74
62849;BME280;48941;49.516;8.286;2023-06-04T12:22:14;100579.50;;;29.18;21.41
62849;BME280;48941;49.516;8.286;2023-06-04T12:24:52;100591.50;;;29.05;20.36
62849;BME280;48941;49.516;8.286;2023-06-04T12:27:23;100584.38;;;29.16;20.77
62849;BME280;48941;49.516;8.286;2023-06-04T12:29:57;100580.56;;;29.17;20.71
62849;BME280;48941;49.516;8.286;2023-06-04T12:32:25;100576.97;;;29.05;20.82
62849;BME280;48941;49.516;8.286;2023-06-04T12:34:53;100587.50;;;28.84;21.29
62849;BME280;48941;49.516;8.286;2023-06-04T12:37:21;100580.34;;;28.71;21.09
62849;BME280;48941;49.516;8.286;2023-06-04T12:39:49;100579.97;;;28.68;21.69
62849;BME280;48941;49.516;8.286;2023-06-04T12:42:17;100582.47;;;28.69;21.19
62849;BME280;48941;49.516;8.286;2023-06-04T12:44:47;100580.09;;;28.61;20.92
62849;BME280;48941;49.516;8.286;2023-06-04T12:47:15;100580.00;;;28.56;21.44
62849;BME280;48941;49.516;8.286;2023-06-04T12:49:43;100577.13;;;28.51;21.42
62849;BME280;48941;49.516;8.286;2023-06-04T12:52:12;100578.31;;;28.55;21.61
62849;BME280;48941;49.516;8.286;2023-06-04T12:54:41;100581.50;;;28.64;21.11
62849;BME280;48941;49.516;8.286;2023-06-04T12:57:09;100573.28;;;28.64;21.05
62849;BME280;48941;49.516;8.286;2023-06-04T12:59:37;100578.69;;;28.82;22.01
62849;BME280;48941;49.516;8.286;2023-06-04T13:02:06;100583.50;;;29.04;21.39